createdAt,value
2018-05-10T00:01:48.025Z,18.30
2018-05-10T00:04:15.493Z,18.30
2018-05-10T00:06:42.965Z,18.30
2018-05-10T00:09:10.437Z,18.20
2018-05-10T00:11:38.007Z,18.20
2018-05-10T00:14:05.483Z,18.10
2018-05-10T00:16:32.967Z,18.10
2018-05-10T00:19:00.561Z,18.00
2018-05-10T00:21:28.023Z,18.00
2018-05-10T00:23:55.485Z,18.00
2018-05-10T00:26:22.950Z,17.90
2018-05-10T00:28:50.399Z,17.90
2018-05-10T00:31:17.877Z,17.90
2018-05-10T00:33:45.341Z,17.80
2018-05-10T00:36:12.820Z,17.80
2018-05-10T00:38:40.303Z,17.70
2018-05-10T00:41:07.763Z,17.70
2018-05-10T00:43:36.006Z,17.70
2018-05-10T00:46:03.478Z,17.70
2018-05-10T00:48:30.949Z,17.60
2018-05-10T00:50:59.185Z,17.50
2018-05-10T00:53:26.668Z,17.50
2018-05-10T00:55:54.125Z,17.50
2018-05-10T00:58:21.596Z,17.50
2018-05-10T01:00:49.056Z,17.40
2018-05-10T01:03:17.305Z,17.40
2018-05-10T01:05:44.765Z,17.40
2018-05-10T01:08:12.232Z,17.40
2018-05-10T01:10:39.696Z,17.30
2018-05-10T01:13:07.164Z,17.30
2018-05-10T01:15:35.431Z,17.20
2018-05-10T01:18:03.691Z,17.10
2018-05-10T01:20:31.169Z,17.10
2018-05-10T01:22:58.641Z,17.10
2018-05-10T01:25:26.103Z,17.10
2018-05-10T01:27:53.583Z,17.00
2018-05-10T01:30:21.821Z,17.00
2018-05-10T01:32:49.281Z,16.90
2018-05-10T01:35:29.101Z,17.00
2018-05-10T01:37:56.574Z,16.90
2018-05-10T01:40:24.036Z,16.90
2018-05-10T01:42:51.500Z,16.90
2018-05-10T01:45:18.969Z,16.90
2018-05-10T01:47:46.431Z,16.90
2018-05-10T01:50:13.960Z,16.90
2018-05-10T01:52:42.201Z,16.80
2018-05-10T01:55:09.680Z,16.80
2018-05-10T01:57:37.144Z,16.80
2018-05-10T02:00:04.667Z,16.80
2018-05-10T02:02:32.134Z,16.80
2018-05-10T02:04:59.620Z,16.80
2018-05-10T02:07:27.861Z,16.70
2018-05-10T02:09:55.336Z,16.70
2018-05-10T02:12:22.800Z,16.70
2018-05-10T02:14:50.337Z,16.60
2018-05-10T02:17:18.509Z,16.60
2018-05-10T02:19:45.970Z,16.60
2018-05-10T02:22:13.438Z,16.60
2018-05-10T02:24:40.893Z,16.60
2018-05-10T02:27:08.358Z,16.50
2018-05-10T02:29:35.823Z,16.60
2018-05-10T02:32:03.311Z,16.60
2018-05-10T02:34:30.769Z,16.70
2018-05-10T02:36:58.225Z,16.70
2018-05-10T02:39:25.687Z,16.70
2018-05-10T02:41:53.145Z,16.70
2018-05-10T02:44:20.603Z,16.60
2018-05-10T02:46:48.049Z,16.60
2018-05-10T02:49:15.509Z,16.60
2018-05-10T02:51:42.969Z,16.70
2018-05-10T02:54:10.472Z,16.70
2018-05-10T02:56:37.927Z,16.70
2018-05-10T02:59:05.411Z,16.70
2018-05-10T03:01:32.858Z,16.80
2018-05-10T03:04:01.391Z,16.80
2018-05-10T03:06:28.905Z,16.90
2018-05-10T03:08:56.383Z,16.80
2018-05-10T03:11:23.850Z,16.70
2018-05-10T03:13:51.307Z,16.70
2018-05-10T03:16:18.791Z,16.70
2018-05-10T03:18:46.262Z,16.70
2018-05-10T03:21:13.738Z,16.70
2018-05-10T03:23:41.193Z,16.60
2018-05-10T03:26:08.676Z,16.50
2018-05-10T03:28:36.148Z,16.60
2018-05-10T03:31:03.608Z,16.50
2018-05-10T03:33:31.067Z,16.50
2018-05-10T03:35:58.524Z,16.50
2018-05-10T03:38:25.988Z,16.50
2018-05-10T03:40:53.428Z,16.50
2018-05-10T03:43:20.890Z,16.50
2018-05-10T03:45:48.359Z,16.40
2018-05-10T03:48:15.800Z,16.40
2018-05-10T03:50:43.268Z,16.40
2018-05-10T03:53:10.742Z,16.30
2018-05-10T03:55:38.222Z,16.30
2018-05-10T03:58:05.769Z,16.20
2018-05-10T04:00:33.168Z,16.20
2018-05-10T04:16:49.251Z,16.20
2018-05-10T04:19:16.726Z,16.30
2018-05-10T04:21:44.209Z,16.30
2018-05-10T04:24:11.682Z,16.30
2018-05-10T04:26:39.124Z,16.40
2018-05-10T04:29:06.655Z,16.50
2018-05-10T04:31:34.884Z,16.60
2018-05-10T04:34:02.344Z,16.60
2018-05-10T04:36:29.831Z,16.70
2018-05-10T04:38:57.300Z,16.70
2018-05-10T04:41:24.785Z,16.70
2018-05-10T04:43:52.241Z,16.70
2018-05-10T04:46:19.730Z,16.70
2018-05-10T04:48:47.193Z,16.80
2018-05-10T04:51:14.747Z,16.90
2018-05-10T04:53:42.145Z,17.00
2018-05-10T04:56:09.632Z,17.00
2018-05-10T04:58:37.136Z,17.10
2018-05-10T05:01:04.636Z,17.30
2018-05-10T05:03:32.192Z,17.50
2018-05-10T05:05:59.617Z,17.60
2018-05-10T05:08:27.091Z,17.80
2018-05-10T05:10:54.657Z,18.00
2018-05-10T05:13:22.137Z,18.00
2018-05-10T05:15:49.628Z,18.20
2018-05-10T05:18:17.096Z,18.30
2018-05-10T05:20:44.554Z,18.30
2018-05-10T05:23:12.006Z,18.40
2018-05-10T05:25:39.517Z,18.50
2018-05-10T05:28:06.994Z,18.50
2018-05-10T05:30:34.461Z,18.60
2018-05-10T05:33:01.942Z,18.60
2018-05-10T05:35:30.181Z,18.80
2018-05-10T05:37:57.655Z,18.80
2018-05-10T05:40:25.137Z,19.00
2018-05-10T05:42:52.603Z,19.10
2018-05-10T05:45:20.052Z,19.20
2018-05-10T05:47:47.507Z,19.30
2018-05-10T05:50:14.981Z,19.40
2018-05-10T05:52:42.441Z,19.50
2018-05-10T05:55:09.902Z,19.60
2018-05-10T05:57:37.355Z,19.70
2018-05-10T06:00:04.812Z,19.80
2018-05-10T06:02:32.309Z,19.90
2018-05-10T06:04:59.772Z,20.00
2018-05-10T06:07:27.255Z,20.10
2018-05-10T06:09:54.716Z,20.20
2018-05-10T06:12:24.137Z,20.10
2018-05-10T06:14:51.615Z,20.10
2018-05-10T06:17:19.087Z,20.20
2018-05-10T06:19:46.571Z,20.30
2018-05-10T06:22:14.044Z,20.30
2018-05-10T06:24:41.600Z,20.30
2018-05-10T06:27:09.015Z,20.30
2018-05-10T06:29:36.492Z,20.30
2018-05-10T06:32:03.984Z,20.30
2018-05-10T06:34:31.674Z,20.30
2018-05-10T06:36:59.145Z,20.40
2018-05-10T06:39:26.625Z,20.50
2018-05-10T06:41:54.085Z,20.60
2018-05-10T06:44:21.564Z,20.70
2018-05-10T06:46:49.107Z,20.80
2018-05-10T06:49:16.569Z,20.80
2018-05-10T06:51:44.018Z,20.80
2018-05-10T06:54:11.676Z,20.80
2018-05-10T06:56:39.168Z,20.80
2018-05-10T06:59:07.467Z,20.80
2018-05-10T07:01:34.921Z,20.70
2018-05-10T07:04:02.420Z,20.80
2018-05-10T07:06:29.910Z,20.90
2018-05-10T07:08:58.140Z,21.00
2018-05-10T07:11:26.045Z,20.90
2018-05-10T07:13:54.332Z,21.10
2018-05-10T07:16:22.578Z,21.30
2018-05-10T07:18:50.031Z,21.30
2018-05-10T07:21:17.512Z,21.50
2018-05-10T07:23:44.976Z,21.70
2018-05-10T07:26:13.251Z,22.10
2018-05-10T07:28:41.477Z,22.40
2018-05-10T07:31:09.521Z,22.30
2018-05-10T07:33:36.989Z,22.60
2018-05-10T07:36:04.462Z,22.90
2018-05-10T07:38:31.944Z,23.10
2018-05-10T07:40:59.427Z,23.30
2018-05-10T07:43:27.698Z,23.40
2018-05-10T07:45:55.158Z,23.40
2018-05-10T07:48:22.621Z,23.50
2018-05-10T07:50:50.873Z,23.60
2018-05-10T07:53:18.499Z,23.50
2018-05-10T07:55:46.011Z,23.60
2018-05-10T07:58:13.470Z,23.60
2018-05-10T08:00:41.732Z,23.50
2018-05-10T08:03:09.260Z,23.50
2018-05-10T08:05:37.325Z,23.40
2018-05-10T08:08:04.825Z,23.50
2018-05-10T08:10:32.346Z,23.50
2018-05-10T08:12:59.838Z,23.50
2018-05-10T08:15:28.221Z,23.60
2018-05-10T08:17:55.687Z,23.60
2018-05-10T08:20:23.912Z,24.00
2018-05-10T08:22:51.384Z,24.00
2018-05-10T08:25:18.872Z,24.10
2018-05-10T08:27:47.100Z,24.60
2018-05-10T08:33:13.356Z,24.70
2018-05-10T08:35:40.823Z,24.70
2018-05-10T08:38:08.480Z,24.80
2018-05-10T08:40:35.968Z,24.70
2018-05-10T08:43:03.433Z,24.80
2018-05-10T08:45:31.717Z,24.80
2018-05-10T08:47:59.184Z,24.80
2018-05-10T08:50:26.672Z,24.90
2018-05-10T08:52:54.193Z,24.90
2018-05-10T08:55:21.655Z,24.90
2018-05-10T08:57:50.057Z,24.80
2018-05-10T09:00:17.531Z,24.80
2018-05-10T09:02:46.142Z,24.80
2018-05-10T09:05:13.938Z,24.70
2018-05-10T09:07:41.494Z,24.70
2018-05-10T09:10:08.992Z,24.70
2018-05-10T09:12:36.475Z,24.70
2018-05-10T09:15:03.987Z,24.70
2018-05-10T09:17:31.461Z,24.70
2018-05-10T09:19:59.720Z,24.70
2018-05-10T09:22:27.229Z,24.70
2018-05-10T09:24:54.689Z,24.80
2018-05-10T09:27:22.140Z,24.90
2018-05-10T09:29:49.600Z,25.00
2018-05-10T09:32:17.057Z,25.10
2018-05-10T09:34:44.522Z,25.10
2018-05-10T09:37:11.980Z,25.20
2018-05-10T09:39:40.224Z,25.20
2018-05-10T09:42:07.697Z,25.10
2018-05-10T09:44:35.165Z,25.20
2018-05-10T09:47:03.249Z,25.20
2018-05-10T09:49:31.509Z,25.40
2018-05-10T09:51:59.004Z,25.40
2018-05-10T09:54:26.508Z,25.40
2018-05-10T09:56:54.001Z,25.50
2018-05-10T09:59:21.616Z,25.60
2018-05-10T10:01:49.095Z,25.70
2018-05-10T10:04:16.617Z,25.90
2018-05-10T10:06:44.090Z,26.10
2018-05-10T10:09:11.584Z,26.20
2018-05-10T10:11:40.799Z,26.40
2018-05-10T10:14:09.064Z,26.60
2018-05-10T10:16:37.425Z,26.70
2018-05-10T10:19:05.774Z,26.60
2018-05-10T10:21:33.471Z,26.60
2018-05-10T10:24:01.898Z,26.10
2018-05-10T10:26:29.498Z,26.10
2018-05-10T10:28:56.964Z,25.90
2018-05-10T10:31:34.618Z,25.70
2018-05-10T10:34:14.952Z,25.80
2018-05-10T10:39:25.973Z,26.10
2018-05-10T10:41:55.854Z,26.30
2018-05-10T10:44:24.494Z,26.30
2018-05-10T10:46:56.862Z,26.30
2018-05-10T10:49:25.104Z,26.40
2018-05-10T10:51:52.581Z,26.40
2018-05-10T10:54:23.647Z,26.30
2018-05-10T10:56:53.066Z,26.30
2018-05-10T10:59:23.459Z,26.20
2018-05-10T11:01:51.074Z,26.10
2018-05-10T11:04:19.292Z,26.40
2018-05-10T11:06:46.825Z,26.40
2018-05-10T11:09:14.427Z,26.40
2018-05-10T11:11:42.800Z,26.40
2018-05-10T11:14:10.288Z,26.40
2018-05-10T11:16:38.571Z,26.30
2018-05-10T11:19:08.556Z,26.30
2018-05-10T11:21:38.162Z,26.30
2018-05-10T11:24:09.493Z,26.20
2018-05-10T11:26:37.030Z,26.20
2018-05-10T11:29:04.642Z,26.10
2018-05-10T11:31:32.154Z,26.10
2018-05-10T11:33:59.776Z,26.10
2018-05-10T11:36:29.717Z,26.10
2018-05-10T11:38:57.226Z,26.20
2018-05-10T11:41:24.716Z,26.30
2018-05-10T11:43:52.233Z,26.40
2018-05-10T11:46:19.723Z,26.30
2018-05-10T11:48:47.979Z,26.10
2018-05-10T11:51:16.240Z,26.10
2018-05-10T11:53:43.708Z,26.10
2018-05-10T11:56:11.164Z,26.10
2018-05-10T11:58:38.624Z,26.20
2018-05-10T12:01:06.085Z,26.30
2018-05-10T12:03:34.322Z,26.50
2018-05-10T12:06:01.824Z,26.40
2018-05-10T12:08:29.289Z,26.50
2018-05-10T12:10:56.820Z,26.40
2018-05-10T12:13:24.286Z,26.40
2018-05-10T12:15:51.757Z,26.50
2018-05-10T12:18:19.228Z,26.40
2018-05-10T12:20:46.698Z,26.30
2018-05-10T12:23:14.148Z,26.10
2018-05-10T12:25:41.699Z,25.90
2018-05-10T12:28:09.190Z,25.40
2018-05-10T12:30:36.652Z,24.90
2018-05-10T12:33:04.115Z,24.60
2018-05-10T12:35:31.601Z,24.30
2018-05-10T12:37:59.112Z,24.00
2018-05-10T12:40:26.608Z,23.80
2018-05-10T12:42:54.071Z,23.60
2018-05-10T12:45:21.588Z,23.40
2018-05-10T12:47:49.059Z,23.00
2018-05-10T12:50:16.565Z,22.40
2018-05-10T12:52:44.823Z,21.20
2018-05-10T12:55:12.295Z,21.10
2018-05-10T12:57:40.537Z,20.10
2018-05-10T13:00:08.019Z,20.10
2018-05-10T13:02:36.264Z,19.10
2018-05-10T13:05:03.728Z,19.10
2018-05-10T13:10:32.248Z,18.30
2018-05-10T13:12:59.724Z,18.10
2018-05-10T13:15:27.193Z,17.90
2018-05-10T13:17:54.668Z,17.80
2018-05-10T13:20:22.150Z,17.60
2018-05-10T13:22:49.642Z,17.40
2018-05-10T13:25:17.876Z,17.00
2018-05-10T13:27:45.377Z,17.00
2018-05-10T13:30:13.748Z,16.80
2018-05-10T13:32:42.021Z,16.80
2018-05-10T13:35:09.493Z,16.70
2018-05-10T13:37:37.131Z,16.70
2018-05-10T13:40:04.618Z,16.70
2018-05-10T13:42:35.048Z,16.70
2018-05-10T13:45:02.686Z,16.70
2018-05-10T13:47:31.044Z,16.50
2018-05-10T13:49:58.414Z,16.50
2018-05-10T13:52:26.648Z,16.20
2018-05-10T13:54:54.179Z,16.20
2018-05-10T13:57:21.689Z,16.20
2018-05-10T13:59:49.170Z,16.10
2018-05-10T14:02:16.665Z,16.00
2018-05-10T14:04:44.177Z,15.90
2018-05-10T14:07:11.644Z,15.80
2018-05-10T14:09:39.904Z,15.70
2018-05-10T14:12:08.074Z,15.70
2018-05-10T14:14:35.543Z,15.70
2018-05-10T14:17:03.012Z,15.70
2018-05-10T14:19:31.245Z,15.70
2018-05-10T14:21:58.812Z,15.60
2018-05-10T14:24:26.204Z,15.70
2018-05-10T14:26:54.431Z,15.60
2018-05-10T14:29:21.896Z,15.60
2018-05-10T14:31:49.382Z,15.70
2018-05-10T14:34:16.805Z,15.70
2018-05-10T14:36:44.311Z,15.70
2018-05-10T14:39:12.541Z,15.60
2018-05-10T14:41:39.998Z,15.60
2018-05-10T14:44:07.488Z,15.70
2018-05-10T14:46:35.763Z,15.70
2018-05-10T14:49:03.288Z,15.70
2018-05-10T14:51:32.196Z,15.80
2018-05-10T14:53:59.682Z,15.90
2018-05-10T14:56:28.424Z,15.90
2018-05-10T14:58:55.928Z,16.00
2018-05-10T15:01:24.183Z,16.00
2018-05-10T15:03:52.492Z,15.90
2018-05-10T15:06:19.968Z,15.90
2018-05-10T15:08:47.433Z,15.80
2018-05-10T15:11:14.920Z,15.80
2018-05-10T15:13:42.380Z,15.70
2018-05-10T15:16:09.848Z,15.60
2018-05-10T15:18:37.348Z,15.60
2018-05-10T15:21:04.817Z,15.60
2018-05-10T15:23:32.311Z,15.60
2018-05-10T15:25:59.756Z,15.60
2018-05-10T15:28:27.240Z,15.50
2018-05-10T15:30:54.700Z,15.50
2018-05-10T15:33:23.052Z,15.40
2018-05-10T15:35:50.591Z,15.40
2018-05-10T15:38:18.050Z,15.40
2018-05-10T15:40:46.962Z,15.40
2018-05-10T15:43:14.447Z,15.40
2018-05-10T15:45:41.902Z,15.40
2018-05-10T15:48:09.376Z,15.50
2018-05-10T15:50:37.445Z,15.50
2018-05-10T15:53:05.081Z,15.40
2018-05-10T15:55:33.308Z,15.50
2018-05-10T15:58:00.795Z,15.50
2018-05-10T16:00:28.321Z,15.50
2018-05-10T16:02:55.774Z,15.50
2018-05-10T16:05:23.293Z,15.50
2018-05-10T16:07:51.526Z,15.60
2018-05-10T16:10:18.996Z,15.50
2018-05-10T16:12:46.605Z,15.60
2018-05-10T16:15:14.214Z,15.60
2018-05-10T16:17:42.421Z,15.60
2018-05-10T16:20:10.095Z,15.50
2018-05-10T16:22:37.610Z,15.50
2018-05-10T16:25:05.497Z,15.40
2018-05-10T16:27:33.240Z,15.40
2018-05-10T16:30:01.768Z,15.40
2018-05-10T16:32:30.330Z,15.30
2018-05-10T16:34:59.091Z,15.30
2018-05-10T16:40:18.302Z,15.40
2018-05-10T16:42:46.464Z,15.40
2018-05-10T16:45:14.282Z,15.30
2018-05-10T16:47:42.046Z,15.30
2018-05-10T16:50:09.955Z,15.10
2018-05-10T16:52:37.628Z,15.10
2018-05-10T16:55:05.296Z,15.00
2018-05-10T16:57:32.942Z,15.00
2018-05-10T17:00:00.409Z,15.00
2018-05-10T17:02:28.414Z,15.10
2018-05-10T17:04:55.881Z,15.00
2018-05-10T17:07:24.105Z,14.90
2018-05-10T17:09:51.573Z,14.90
2018-05-10T17:12:19.875Z,15.00
2018-05-10T17:14:48.441Z,15.00
2018-05-10T17:17:16.741Z,15.00
2018-05-10T17:19:44.631Z,15.00
2018-05-10T17:22:12.157Z,15.00
2018-05-10T17:24:39.634Z,14.90
2018-05-10T17:27:07.200Z,14.80
2018-05-10T17:29:34.661Z,14.70
2018-05-10T17:32:02.374Z,14.60
2018-05-10T17:34:29.918Z,14.60
2018-05-10T17:36:57.441Z,14.60
2018-05-10T17:39:24.905Z,14.50
2018-05-10T17:41:53.565Z,14.40
2018-05-10T17:44:21.626Z,14.40
2018-05-10T17:46:49.790Z,14.40
2018-05-10T17:49:17.252Z,14.50
2018-05-10T17:51:44.725Z,14.40
2018-05-10T17:54:12.316Z,14.30
2018-05-10T17:56:40.707Z,14.40
2018-05-10T17:59:08.320Z,14.30
2018-05-10T18:01:35.949Z,14.30
2018-05-10T18:04:03.400Z,14.20
2018-05-10T18:06:31.740Z,14.20
2018-05-10T18:08:59.197Z,14.20
2018-05-10T18:11:26.699Z,14.30
2018-05-10T18:13:55.005Z,14.10
2018-05-10T18:16:23.292Z,14.10
2018-05-10T18:18:50.764Z,14.10
2018-05-10T18:21:19.007Z,14.10
2018-05-10T18:23:46.485Z,14.10
2018-05-10T18:26:13.935Z,14.20
2018-05-10T18:28:41.399Z,14.20
2018-05-10T18:31:08.861Z,14.10
2018-05-10T18:33:36.331Z,14.20
2018-05-10T18:36:03.870Z,14.20
2018-05-10T18:38:31.360Z,14.30
2018-05-10T18:40:58.841Z,14.20
2018-05-10T18:43:27.065Z,14.00
2018-05-10T18:45:54.536Z,13.90
2018-05-10T18:48:21.989Z,14.00
2018-05-10T18:50:49.440Z,14.10
2018-05-10T18:53:16.913Z,14.10
2018-05-10T18:55:44.358Z,14.00
2018-05-10T18:58:12.057Z,14.00
2018-05-10T19:00:39.588Z,14.10
2018-05-10T19:03:07.063Z,14.00
2018-05-10T19:05:34.533Z,14.00
2018-05-10T19:08:02.011Z,14.00
2018-05-10T19:10:29.458Z,14.00
2018-05-10T19:12:57.922Z,13.90
2018-05-10T19:15:25.409Z,13.90
2018-05-10T19:17:52.835Z,13.80
2018-05-10T19:20:20.331Z,13.70
2018-05-10T19:22:47.796Z,13.70
2018-05-10T19:25:15.300Z,13.60
2018-05-10T19:27:42.768Z,13.60
2018-05-10T19:30:10.245Z,13.50
2018-05-10T19:32:37.791Z,13.40
2018-05-10T19:35:05.276Z,13.40
2018-05-10T19:37:33.099Z,13.50
2018-05-10T19:40:00.621Z,13.50
2018-05-10T19:42:29.988Z,13.50
2018-05-10T19:44:58.504Z,13.50
2018-05-10T19:47:25.991Z,13.50
2018-05-10T19:49:53.448Z,13.50
2018-05-10T19:52:22.213Z,13.50
2018-05-10T19:54:49.667Z,13.60
2018-05-10T19:57:17.139Z,13.60
2018-05-10T19:59:44.640Z,13.60
2018-05-10T20:02:12.096Z,13.70
2018-05-10T20:04:39.641Z,13.70
2018-05-10T20:07:08.185Z,13.60
2018-05-10T20:09:35.678Z,13.50
2018-05-10T20:12:03.952Z,13.50
2018-05-10T20:14:32.211Z,13.50
2018-05-10T20:16:59.677Z,13.50
2018-05-10T20:19:27.174Z,13.50
2018-05-10T20:21:54.646Z,13.50
2018-05-10T20:24:22.099Z,13.50
2018-05-10T20:26:49.545Z,13.40
2018-05-10T20:29:17.053Z,13.40
2018-05-10T20:31:44.521Z,13.40
2018-05-10T20:34:12.011Z,13.50
2018-05-10T20:36:39.453Z,13.50
2018-05-10T20:39:06.893Z,13.50
2018-05-10T20:41:35.174Z,13.40
2018-05-10T20:44:02.631Z,13.40
2018-05-10T20:46:30.258Z,13.40
2018-05-10T20:48:57.721Z,13.40
2018-05-10T20:51:25.182Z,13.40
2018-05-10T20:53:52.660Z,13.40
2018-05-10T20:56:20.116Z,13.40
2018-05-10T20:58:48.375Z,13.20
2018-05-10T21:01:15.810Z,13.20
2018-05-10T21:03:43.360Z,13.30
2018-05-10T21:06:10.753Z,13.30
2018-05-10T21:08:38.216Z,13.20
2018-05-10T21:11:05.672Z,13.20
2018-05-10T21:13:33.150Z,13.30
2018-05-10T21:16:01.363Z,13.20
2018-05-10T21:18:28.819Z,13.20
2018-05-10T21:20:56.278Z,13.10
2018-05-10T21:23:23.725Z,13.10
2018-05-10T21:25:51.203Z,13.10
2018-05-10T21:28:18.656Z,13.10
2018-05-10T21:30:46.100Z,13.00
2018-05-10T21:33:13.568Z,13.10
2018-05-10T21:35:41.028Z,13.10
2018-05-10T21:38:08.486Z,13.10
2018-05-10T21:40:35.974Z,13.20
2018-05-10T21:43:03.451Z,13.20
2018-05-10T21:45:30.921Z,13.20
2018-05-10T21:47:58.377Z,13.10
2018-05-10T21:50:27.760Z,13.20
2018-05-10T21:52:55.218Z,13.20
2018-05-10T21:55:22.721Z,13.20
2018-05-10T21:57:50.197Z,13.20
2018-05-10T22:00:17.684Z,13.20
2018-05-10T22:02:45.913Z,13.20
2018-05-10T22:05:13.363Z,13.20
2018-05-10T22:07:40.850Z,13.10
2018-05-10T22:10:08.304Z,13.10
2018-05-10T22:12:35.764Z,13.10
2018-05-10T22:15:03.241Z,13.10
2018-05-10T22:17:31.490Z,13.10
2018-05-10T22:19:58.967Z,13.10
2018-05-10T22:22:26.432Z,13.10
2018-05-10T22:24:54.669Z,13.10
2018-05-10T22:27:22.179Z,13.10
2018-05-10T22:29:50.419Z,13.20
2018-05-10T22:32:17.877Z,13.20
2018-05-10T22:34:45.439Z,13.20
2018-05-10T22:37:12.816Z,13.10
2018-05-10T22:39:41.077Z,13.10
2018-05-10T22:42:08.540Z,13.10
2018-05-10T22:44:36.075Z,13.10
2018-05-10T22:47:03.537Z,13.20
2018-05-10T22:49:31.025Z,13.20
2018-05-10T22:51:59.265Z,13.30
2018-05-10T22:54:26.742Z,13.30
2018-05-10T22:56:54.973Z,13.20
2018-05-10T22:59:22.429Z,13.20
2018-05-10T23:01:49.911Z,13.20
2018-05-10T23:04:17.373Z,13.20
2018-05-10T23:06:44.820Z,13.30
2018-05-10T23:09:12.277Z,13.20
2018-05-10T23:11:39.737Z,13.10
2018-05-10T23:14:07.197Z,13.10
2018-05-10T23:16:38.592Z,13.10
2018-05-10T23:19:06.043Z,13.00
2018-05-10T23:21:33.493Z,13.00
2018-05-10T23:24:00.986Z,13.00
2018-05-10T23:26:28.458Z,12.90
2018-05-10T23:28:55.918Z,12.90
2018-05-10T23:31:23.380Z,12.90
2018-05-10T23:33:50.845Z,12.90
2018-05-10T23:36:18.323Z,12.90
2018-05-10T23:38:46.547Z,12.90
2018-05-10T23:41:14.016Z,12.90
2018-05-10T23:43:41.495Z,12.90
2018-05-10T23:46:08.954Z,12.90
2018-05-10T23:48:36.424Z,12.90
2018-05-10T23:51:04.672Z,12.90
2018-05-10T23:53:32.145Z,12.90
2018-05-10T23:55:59.619Z,12.90
2018-05-10T23:58:27.853Z,13.00
